createdAt,value
2019-03-31T00:01:34.389Z,81.20
2019-03-31T00:04:06.387Z,90.00
2019-03-31T00:06:37.443Z,97.40
2019-03-31T00:09:08.575Z,91.65
2019-03-31T00:11:39.678Z,115.15
2019-03-31T00:14:11.744Z,97.53
2019-03-31T00:16:44.641Z,112.28
2019-03-31T00:19:15.751Z,112.88
2019-03-31T00:21:46.773Z,120.10
2019-03-31T00:24:17.818Z,111.90
2019-03-31T00:26:48.825Z,118.05
2019-03-31T00:29:19.873Z,108.80
2019-03-31T00:31:50.785Z,109.03
2019-03-31T00:34:21.824Z,113.25
2019-03-31T00:36:52.836Z,109.97
2019-03-31T00:39:23.755Z,99.28
2019-03-31T00:41:54.652Z,95.10
2019-03-31T00:44:25.596Z,93.80
2019-03-31T00:46:56.524Z,89.65
2019-03-31T00:49:27.646Z,89.80
2019-03-31T00:51:58.634Z,88.72
2019-03-31T00:54:29.665Z,94.50
2019-03-31T00:57:00.665Z,89.95
2019-03-31T00:59:31.697Z,98.52
2019-03-31T01:02:05.357Z,104.00
2019-03-31T01:04:36.458Z,101.50
2019-03-31T01:07:07.850Z,91.32
2019-03-31T01:09:38.932Z,98.05
2019-03-31T01:12:09.935Z,94.20
2019-03-31T01:14:40.910Z,95.57
2019-03-31T01:17:13.419Z,94.58
2019-03-31T01:19:44.542Z,100.63
2019-03-31T01:22:15.454Z,106.60
2019-03-31T01:24:46.476Z,120.95
2019-03-31T01:27:17.617Z,122.85
2019-03-31T01:29:49.023Z,114.22
2019-03-31T01:32:20.379Z,125.82
2019-03-31T01:34:51.387Z,124.95
2019-03-31T01:37:24.005Z,128.83
2019-03-31T01:39:56.774Z,122.62
2019-03-31T01:42:27.789Z,113.72
2019-03-31T01:44:58.791Z,111.40
2019-03-31T01:47:29.853Z,117.70
2019-03-31T01:50:00.894Z,111.92
2019-03-31T01:52:33.427Z,117.60
2019-03-31T01:55:05.726Z,120.00
2019-03-31T01:57:36.610Z,113.55
2019-03-31T02:00:10.564Z,104.92
2019-03-31T02:02:41.553Z,109.75
2019-03-31T02:05:12.710Z,100.90
2019-03-31T02:07:43.757Z,110.35
2019-03-31T02:10:14.767Z,121.47
2019-03-31T02:12:45.671Z,121.87
2019-03-31T02:15:16.655Z,119.28
2019-03-31T02:17:48.454Z,117.17
2019-03-31T02:20:19.536Z,119.95
2019-03-31T02:22:50.532Z,126.00
2019-03-31T02:25:21.537Z,132.82
2019-03-31T02:27:54.127Z,143.65
2019-03-31T02:30:25.292Z,118.40
2019-03-31T02:32:56.205Z,108.35
2019-03-31T02:35:27.140Z,115.72
2019-03-31T02:37:58.080Z,111.80
2019-03-31T02:40:29.107Z,109.42
2019-03-31T02:43:00.028Z,109.32
2019-03-31T02:45:31.202Z,101.02
2019-03-31T02:48:02.105Z,108.17
2019-03-31T02:50:39.026Z,107.63
2019-03-31T02:53:10.101Z,108.27
2019-03-31T02:55:41.102Z,106.00
2019-03-31T02:58:14.316Z,113.68
2019-03-31T03:00:45.503Z,114.00
2019-03-31T03:03:17.235Z,105.92
2019-03-31T03:05:49.804Z,110.15
2019-03-31T03:08:21.903Z,98.52
2019-03-31T03:10:52.868Z,100.42
2019-03-31T03:13:24.830Z,105.80
2019-03-31T03:16:02.980Z,109.17
2019-03-31T03:18:34.756Z,113.03
2019-03-31T03:21:06.018Z,121.05
2019-03-31T03:23:36.962Z,112.50
2019-03-31T03:26:08.006Z,105.03
2019-03-31T03:28:39.176Z,107.22
2019-03-31T03:31:15.201Z,102.32
2019-03-31T03:33:42.908Z,109.40
2019-03-31T03:36:14.023Z,106.70
2019-03-31T03:38:45.030Z,104.87
2019-03-31T03:41:15.978Z,101.18
2019-03-31T03:43:55.672Z,101.90
2019-03-31T03:46:19.688Z,108.50
2019-03-31T03:48:50.746Z,104.72
2019-03-31T03:51:21.681Z,97.92
2019-03-31T03:53:52.630Z,103.95
2019-03-31T03:56:23.560Z,107.27
2019-03-31T03:58:54.473Z,111.05
2019-03-31T04:01:26.830Z,114.97
2019-03-31T04:03:57.798Z,109.15
2019-03-31T04:06:28.772Z,104.83
2019-03-31T04:08:59.755Z,108.87
2019-03-31T04:11:30.735Z,107.22
2019-03-31T04:14:01.680Z,115.55
2019-03-31T04:16:32.592Z,104.90
2019-03-31T04:19:04.409Z,107.45
2019-03-31T04:21:35.438Z,110.45
2019-03-31T04:24:06.428Z,102.15
2019-03-31T04:26:37.656Z,108.45
2019-03-31T04:29:08.766Z,111.52
2019-03-31T04:31:39.875Z,113.25
2019-03-31T04:34:10.794Z,108.83
2019-03-31T04:36:41.750Z,117.55
2019-03-31T04:39:12.676Z,114.77
2019-03-31T04:41:43.658Z,118.28
2019-03-31T04:44:14.616Z,109.55
2019-03-31T04:46:45.590Z,109.03
2019-03-31T04:49:16.508Z,115.95
2019-03-31T04:51:47.468Z,115.55
2019-03-31T04:54:18.393Z,135.15
2019-03-31T04:56:49.426Z,168.20
2019-03-31T04:59:20.350Z,161.90
2019-03-31T05:01:51.419Z,148.82
2019-03-31T05:04:22.336Z,120.15
2019-03-31T05:06:53.290Z,112.95
2019-03-31T05:09:24.231Z,100.42
2019-03-31T05:11:55.192Z,102.75
2019-03-31T05:14:27.184Z,105.40
2019-03-31T05:16:58.351Z,101.00
2019-03-31T05:19:30.193Z,101.02
2019-03-31T05:22:01.669Z,104.25
2019-03-31T05:24:33.731Z,109.63
2019-03-31T05:27:04.697Z,110.37
2019-03-31T05:29:35.618Z,114.12
2019-03-31T05:32:06.598Z,107.80
2019-03-31T05:34:37.663Z,112.30
2019-03-31T05:37:08.602Z,108.80
2019-03-31T05:39:39.592Z,108.95
2019-03-31T05:42:10.543Z,96.75
2019-03-31T05:44:41.524Z,94.50
2019-03-31T05:47:12.512Z,91.50
2019-03-31T05:49:43.462Z,98.07
2019-03-31T05:52:14.505Z,99.65
2019-03-31T05:54:45.523Z,97.37
2019-03-31T05:57:16.469Z,100.27
2019-03-31T05:59:47.378Z,107.15
2019-03-31T06:02:18.327Z,106.22
2019-03-31T06:04:49.240Z,106.03
2019-03-31T06:07:20.212Z,106.83
2019-03-31T06:09:51.105Z,101.42
2019-03-31T06:12:22.063Z,97.57
2019-03-31T06:14:52.965Z,107.72
2019-03-31T06:17:24.065Z,102.70
2019-03-31T06:19:55.765Z,100.70
2019-03-31T06:22:26.867Z,104.05
2019-03-31T06:24:57.782Z,108.92
2019-03-31T06:27:28.936Z,118.42
2019-03-31T06:29:59.855Z,106.52
2019-03-31T06:32:30.874Z,108.63
2019-03-31T06:35:01.802Z,115.85
2019-03-31T06:37:32.843Z,111.28
2019-03-31T06:40:05.063Z,112.17
2019-03-31T06:42:36.024Z,118.93
2019-03-31T06:45:07.218Z,111.62
2019-03-31T06:47:38.181Z,109.80
2019-03-31T06:50:10.747Z,110.35
2019-03-31T06:52:41.694Z,95.75
2019-03-31T06:55:12.686Z,100.10
2019-03-31T06:57:43.717Z,103.00
2019-03-31T07:00:14.726Z,96.10
2019-03-31T07:02:47.267Z,103.27
2019-03-31T07:05:18.220Z,97.75
2019-03-31T07:07:49.405Z,93.05
2019-03-31T07:10:20.436Z,94.42
2019-03-31T07:12:51.477Z,85.77
2019-03-31T07:15:22.502Z,84.47
2019-03-31T07:17:54.058Z,79.75
2019-03-31T07:20:26.500Z,76.75
2019-03-31T07:22:57.687Z,83.87
2019-03-31T07:25:28.824Z,73.30
2019-03-31T07:28:00.040Z,70.90
2019-03-31T07:30:31.114Z,70.08
2019-03-31T07:33:02.483Z,65.47
2019-03-31T07:35:38.850Z,66.67
2019-03-31T07:38:08.802Z,68.28
2019-03-31T07:40:39.766Z,71.95
2019-03-31T07:43:11.299Z,72.12
2019-03-31T07:45:42.628Z,69.45
2019-03-31T07:48:13.710Z,69.58
2019-03-31T07:50:46.363Z,66.05
2019-03-31T07:53:18.872Z,67.37
2019-03-31T07:55:49.851Z,67.15
2019-03-31T07:58:20.825Z,65.05
2019-03-31T08:00:51.812Z,59.20
2019-03-31T08:03:23.047Z,65.75
2019-03-31T08:05:54.043Z,56.30
2019-03-31T08:08:25.088Z,43.13
2019-03-31T08:10:56.008Z,39.33
2019-03-31T08:13:26.937Z,32.83
2019-03-31T08:15:57.893Z,35.05
2019-03-31T08:18:28.854Z,29.95
2019-03-31T08:21:00.772Z,27.95
2019-03-31T08:23:31.936Z,28.25
2019-03-31T08:26:03.331Z,25.80
2019-03-31T08:28:36.188Z,31.02
2019-03-31T08:31:07.197Z,26.57
2019-03-31T08:33:38.235Z,23.77
2019-03-31T08:36:11.895Z,30.48
2019-03-31T08:38:42.926Z,26.42
2019-03-31T08:41:13.870Z,28.90
2019-03-31T08:43:46.398Z,24.95
2019-03-31T08:46:17.562Z,28.75
2019-03-31T08:48:48.545Z,26.75
2019-03-31T08:51:19.453Z,25.10
2019-03-31T08:53:50.463Z,29.82
2019-03-31T08:56:21.448Z,25.90
2019-03-31T08:58:52.458Z,29.02
2019-03-31T09:01:26.424Z,27.35
2019-03-31T09:03:57.365Z,24.07
2019-03-31T09:06:28.350Z,25.92
2019-03-31T09:08:59.416Z,23.38
2019-03-31T09:11:31.886Z,21.90
2019-03-31T09:14:03.038Z,25.60
2019-03-31T09:16:33.970Z,30.50
2019-03-31T09:19:05.981Z,28.62
2019-03-31T09:21:37.837Z,26.60
2019-03-31T09:24:08.936Z,25.32
2019-03-31T09:26:39.972Z,30.40
2019-03-31T09:29:10.976Z,27.17
2019-03-31T09:31:41.900Z,27.42
2019-03-31T09:34:12.915Z,41.80
2019-03-31T09:36:44.016Z,32.58
2019-03-31T09:39:15.040Z,28.57
2019-03-31T09:41:45.961Z,30.32
2019-03-31T09:44:16.908Z,29.70
2019-03-31T09:46:47.837Z,30.12
2019-03-31T09:49:18.772Z,28.62
2019-03-31T09:51:49.700Z,30.72
2019-03-31T09:54:20.694Z,44.60
2019-03-31T09:56:51.729Z,24.05
2019-03-31T09:59:22.614Z,42.13
2019-03-31T10:01:53.555Z,32.30
2019-03-31T10:04:24.467Z,26.15
2019-03-31T10:06:55.437Z,29.20
2019-03-31T10:09:26.473Z,26.65
2019-03-31T10:11:57.460Z,25.52
2019-03-31T10:14:28.702Z,28.57
2019-03-31T10:16:59.599Z,32.25
2019-03-31T10:19:30.613Z,35.23
2019-03-31T10:22:02.446Z,29.95
2019-03-31T10:24:33.605Z,46.98
2019-03-31T10:27:04.544Z,32.35
2019-03-31T10:29:35.540Z,25.40
2019-03-31T10:32:06.518Z,28.38
2019-03-31T10:34:37.461Z,32.70
2019-03-31T10:37:08.352Z,28.07
2019-03-31T10:39:39.329Z,32.80
2019-03-31T10:42:10.022Z,26.82
2019-03-31T10:44:41.088Z,23.25
2019-03-31T10:47:12.075Z,26.00
2019-03-31T10:49:43.039Z,29.87
2019-03-31T10:52:13.979Z,95.90
2019-03-31T10:54:44.959Z,25.55
2019-03-31T10:57:16.042Z,25.92
2019-03-31T10:59:48.124Z,28.07
2019-03-31T11:02:19.170Z,71.53
2019-03-31T11:04:50.276Z,32.80
2019-03-31T11:07:21.194Z,39.27
2019-03-31T11:09:52.128Z,27.60
2019-03-31T11:12:23.125Z,30.05
2019-03-31T11:14:54.062Z,23.30
2019-03-31T11:17:25.277Z,23.77
2019-03-31T11:19:56.441Z,28.77
2019-03-31T11:22:41.834Z,20.40
2019-03-31T11:25:21.091Z,21.77
2019-03-31T11:27:47.612Z,20.57
2019-03-31T11:30:18.702Z,21.15
2019-03-31T11:32:49.751Z,18.75
2019-03-31T11:35:20.887Z,23.52
2019-03-31T11:37:51.876Z,20.52
2019-03-31T11:40:22.947Z,19.75
2019-03-31T11:42:55.739Z,19.48
2019-03-31T11:45:26.708Z,18.90
2019-03-31T11:47:57.631Z,17.77
2019-03-31T11:50:28.630Z,17.37
2019-03-31T11:52:59.750Z,80.80
2019-03-31T11:55:30.895Z,19.25
2019-03-31T11:58:01.884Z,17.30
2019-03-31T12:00:34.468Z,20.23
2019-03-31T12:03:05.487Z,18.00
2019-03-31T12:05:36.634Z,20.68
2019-03-31T12:08:07.693Z,16.27
2019-03-31T12:10:38.712Z,18.52
2019-03-31T12:13:09.785Z,18.40
2019-03-31T12:15:40.846Z,16.12
2019-03-31T12:18:11.829Z,16.85
2019-03-31T12:20:42.796Z,16.87
2019-03-31T12:23:14.627Z,16.60
2019-03-31T12:25:46.808Z,19.50
2019-03-31T12:28:17.820Z,20.65
2019-03-31T12:30:48.778Z,20.62
2019-03-31T12:33:19.690Z,19.35
2019-03-31T12:35:51.716Z,17.37
2019-03-31T12:38:23.754Z,16.97
2019-03-31T12:40:54.885Z,18.52
2019-03-31T12:43:25.827Z,18.00
2019-03-31T12:45:57.080Z,20.12
2019-03-31T12:48:31.457Z,19.82
2019-03-31T12:51:00.952Z,19.10
2019-03-31T12:53:31.968Z,19.67
2019-03-31T12:56:03.022Z,18.30
2019-03-31T12:58:33.996Z,18.27
2019-03-31T13:01:04.940Z,21.68
2019-03-31T13:03:35.890Z,18.90
2019-03-31T13:06:06.975Z,23.12
2019-03-31T13:08:37.900Z,22.27
2019-03-31T13:11:13.904Z,21.45
2019-03-31T13:13:45.603Z,19.87
2019-03-31T13:16:16.637Z,20.72
2019-03-31T13:18:47.544Z,19.95
2019-03-31T13:21:18.520Z,22.07
2019-03-31T13:23:52.022Z,20.90
2019-03-31T13:26:24.728Z,22.13
2019-03-31T13:28:55.700Z,22.40
2019-03-31T13:31:28.563Z,22.52
2019-03-31T13:33:59.606Z,24.30
2019-03-31T13:36:30.616Z,22.77
2019-03-31T13:39:06.676Z,21.27
2019-03-31T13:41:42.429Z,22.65
2019-03-31T13:44:13.450Z,22.27
2019-03-31T13:46:44.579Z,19.45
2019-03-31T13:49:17.145Z,22.50
2019-03-31T13:51:52.024Z,25.23
2019-03-31T13:54:23.265Z,22.13
2019-03-31T13:56:56.447Z,22.87
2019-03-31T13:59:27.841Z,20.25
2019-03-31T14:02:00.402Z,22.62
2019-03-31T14:04:35.309Z,23.83
2019-03-31T14:07:05.499Z,23.90
2019-03-31T14:09:39.717Z,24.90
2019-03-31T14:12:10.692Z,21.65
2019-03-31T14:14:41.710Z,19.07
2019-03-31T14:17:12.917Z,27.27
2019-03-31T14:19:44.001Z,22.30
2019-03-31T14:22:14.937Z,21.17
2019-03-31T14:24:46.885Z,32.25
2019-03-31T14:27:17.979Z,21.12
2019-03-31T14:29:48.930Z,23.02
2019-03-31T14:32:20.209Z,20.37
2019-03-31T14:34:51.128Z,22.22
2019-03-31T14:37:22.154Z,22.30
2019-03-31T14:39:53.122Z,21.00
2019-03-31T14:42:24.155Z,20.48
2019-03-31T14:44:55.130Z,20.72
2019-03-31T14:47:26.285Z,21.40
2019-03-31T14:49:57.189Z,19.52
2019-03-31T14:52:29.669Z,19.17
2019-03-31T14:55:00.763Z,20.82
2019-03-31T14:57:32.846Z,21.15
2019-03-31T15:00:14.527Z,18.82
2019-03-31T15:02:40.498Z,21.23
2019-03-31T15:05:11.460Z,18.98
2019-03-31T15:07:42.443Z,21.20
2019-03-31T15:10:13.375Z,18.45
2019-03-31T15:12:46.119Z,21.93
2019-03-31T15:15:17.193Z,20.82
2019-03-31T15:17:48.235Z,17.73
2019-03-31T15:20:19.251Z,17.75
2019-03-31T15:22:51.560Z,18.87
2019-03-31T15:25:23.485Z,26.80
2019-03-31T15:27:54.543Z,21.15
2019-03-31T15:30:25.572Z,22.45
2019-03-31T15:32:56.661Z,20.02
2019-03-31T15:35:27.752Z,25.27
2019-03-31T15:37:58.822Z,23.98
2019-03-31T15:40:29.816Z,27.30
2019-03-31T15:43:00.825Z,24.60
2019-03-31T15:45:31.771Z,32.28
2019-03-31T15:48:02.780Z,25.72
2019-03-31T15:50:33.696Z,26.65
2019-03-31T15:53:04.777Z,27.90
2019-03-31T15:55:35.684Z,25.12
2019-03-31T15:58:07.545Z,30.92
2019-03-31T16:00:38.574Z,81.63
2019-03-31T16:03:09.744Z,582.73
2019-03-31T16:05:40.748Z,689.85
2019-03-31T16:08:11.848Z,177.20
2019-03-31T16:10:42.769Z,548.47
2019-03-31T16:13:13.814Z,155.03
2019-03-31T16:15:46.613Z,559.70
2019-03-31T16:18:17.712Z,81.10
2019-03-31T16:20:48.681Z,44.27
2019-03-31T16:23:21.527Z,39.93
2019-03-31T16:26:05.605Z,37.45
2019-03-31T16:28:36.609Z,35.15
2019-03-31T16:31:07.634Z,33.02
2019-03-31T16:33:38.593Z,34.00
2019-03-31T16:36:11.876Z,29.60
2019-03-31T16:38:42.898Z,33.78
2019-03-31T16:41:13.923Z,38.33
2019-03-31T16:43:44.863Z,33.10
2019-03-31T16:46:15.894Z,29.72
2019-03-31T16:48:46.919Z,31.95
2019-03-31T16:51:18.001Z,32.15
2019-03-31T16:53:49.014Z,32.63
2019-03-31T16:56:20.032Z,35.70
2019-03-31T16:58:50.977Z,30.25
2019-03-31T17:01:21.995Z,32.45
2019-03-31T17:03:53.079Z,35.90
2019-03-31T17:06:24.996Z,38.55
2019-03-31T17:08:56.085Z,36.15
2019-03-31T17:11:27.067Z,37.67
2019-03-31T17:13:58.049Z,39.42
2019-03-31T17:16:29.123Z,34.25
2019-03-31T17:19:00.176Z,37.73
2019-03-31T17:21:31.107Z,36.65
2019-03-31T17:24:02.073Z,34.88
2019-03-31T17:26:34.037Z,34.43
2019-03-31T17:29:07.722Z,37.48
2019-03-31T17:31:40.350Z,46.93
2019-03-31T17:34:13.279Z,44.03
2019-03-31T17:36:46.014Z,36.88
2019-03-31T17:39:24.771Z,37.67
2019-03-31T17:41:54.280Z,38.17
2019-03-31T17:46:56.984Z,35.35
2019-03-31T17:49:28.067Z,36.17
2019-03-31T17:52:02.873Z,40.52
2019-03-31T17:54:41.266Z,34.88
2019-03-31T17:57:12.190Z,34.70
2019-03-31T17:59:43.233Z,37.88
2019-03-31T18:02:16.948Z,32.98
2019-03-31T18:04:47.939Z,31.70
2019-03-31T18:07:18.851Z,31.97
2019-03-31T18:09:49.901Z,33.53
2019-03-31T18:12:20.839Z,31.23
2019-03-31T18:14:51.919Z,35.38
2019-03-31T18:17:22.870Z,35.58
2019-03-31T18:19:53.954Z,30.88
2019-03-31T18:22:25.021Z,31.52
2019-03-31T18:24:55.958Z,32.75
2019-03-31T18:27:27.894Z,39.45
2019-03-31T18:29:58.935Z,37.98
2019-03-31T18:32:30.289Z,38.78
2019-03-31T18:35:01.344Z,30.02
2019-03-31T18:37:34.047Z,27.50
2019-03-31T18:40:07.574Z,32.63
2019-03-31T18:45:08.881Z,29.98
2019-03-31T18:47:39.861Z,29.90
2019-03-31T18:50:10.880Z,26.87
2019-03-31T18:52:41.882Z,29.60
2019-03-31T18:55:20.420Z,27.82
2019-03-31T18:58:06.417Z,27.77
2019-03-31T19:00:39.056Z,32.17
2019-03-31T19:03:17.757Z,32.67
2019-03-31T19:06:06.555Z,34.05
2019-03-31T19:08:46.545Z,32.17
2019-03-31T19:11:24.860Z,32.90
2019-03-31T19:14:13.838Z,34.90
2019-03-31T19:17:02.358Z,38.67
2019-03-31T19:19:44.137Z,36.83
2019-03-31T19:22:25.605Z,39.38
2019-03-31T19:24:58.230Z,38.95
2019-03-31T19:27:35.804Z,38.63
2019-03-31T19:30:08.509Z,33.73
2019-03-31T19:33:00.840Z,38.35
2019-03-31T19:35:49.903Z,46.30
2019-03-31T19:38:39.090Z,41.63
2019-03-31T19:41:17.620Z,36.08
2019-03-31T19:44:07.739Z,40.03
2019-03-31T19:46:40.380Z,38.10
2019-03-31T19:49:13.416Z,51.13
2019-03-31T19:51:46.089Z,43.35
2019-03-31T19:54:21.934Z,37.67
2019-03-31T19:56:59.330Z,37.70
2019-03-31T19:59:43.699Z,37.33
2019-03-31T20:02:19.430Z,40.38
2019-03-31T20:05:07.045Z,41.58
2019-03-31T20:07:40.013Z,43.15
2019-03-31T20:10:29.945Z,50.12
2019-03-31T20:13:19.062Z,39.78
2019-03-31T20:16:08.680Z,39.65
2019-03-31T20:18:44.161Z,54.77
2019-03-31T20:21:31.041Z,48.38
2019-03-31T20:24:08.063Z,44.38
2019-03-31T20:26:55.849Z,44.38
2019-03-31T20:29:32.988Z,46.50
2019-03-31T20:32:06.119Z,65.50
2019-03-31T20:34:42.194Z,53.10
2019-03-31T20:37:16.627Z,49.70
2019-03-31T20:40:11.459Z,47.67
2019-03-31T20:42:57.527Z,45.48
2019-03-31T20:45:34.071Z,44.13
2019-03-31T20:48:05.222Z,46.25
2019-03-31T20:50:38.152Z,45.83
2019-03-31T20:53:17.969Z,39.10
2019-03-31T20:55:51.584Z,38.58
2019-03-31T20:58:22.700Z,39.78
2019-03-31T21:00:55.633Z,42.20
2019-03-31T21:03:28.524Z,41.85
2019-03-31T21:06:02.801Z,39.67
2019-03-31T21:08:36.355Z,38.17
2019-03-31T21:11:14.677Z,49.33
2019-03-31T21:13:47.370Z,41.23
2019-03-31T21:16:19.074Z,40.88
2019-03-31T21:18:53.074Z,39.78
2019-03-31T21:21:27.240Z,48.05
2019-03-31T21:23:59.952Z,41.35
2019-03-31T21:26:35.171Z,43.85
2019-03-31T21:29:06.342Z,41.80
2019-03-31T21:31:42.901Z,47.27
2019-03-31T21:34:14.520Z,47.30
2019-03-31T21:36:47.052Z,44.25
2019-03-31T21:39:18.073Z,49.08
2019-03-31T21:41:52.241Z,46.03
2019-03-31T21:44:27.777Z,44.38
2019-03-31T21:46:58.821Z,50.17
2019-03-31T21:49:32.240Z,48.13
2019-03-31T21:52:06.566Z,50.23
2019-03-31T21:54:37.525Z,49.80
2019-03-31T21:57:08.655Z,52.75
2019-03-31T21:59:44.817Z,45.83
2019-03-31T22:02:17.364Z,50.65
2019-03-31T22:04:51.420Z,47.90
2019-03-31T22:07:22.703Z,48.70
2019-03-31T22:09:55.317Z,45.15
2019-03-31T22:12:26.280Z,46.67
2019-03-31T22:14:57.296Z,48.45
2019-03-31T22:17:28.275Z,45.48
2019-03-31T22:19:59.277Z,45.75
2019-03-31T22:22:30.257Z,47.00
2019-03-31T22:25:01.229Z,48.70
2019-03-31T22:27:36.013Z,46.88
2019-03-31T22:30:10.531Z,45.88
2019-03-31T22:32:42.422Z,49.30
2019-03-31T22:35:13.678Z,45.58
2019-03-31T22:37:46.264Z,46.92
2019-03-31T22:40:17.410Z,46.37
2019-03-31T22:42:48.467Z,46.28
2019-03-31T22:45:21.159Z,45.38
2019-03-31T22:47:52.160Z,48.87
2019-03-31T22:50:23.140Z,47.10
2019-03-31T22:52:54.828Z,58.65
2019-03-31T22:55:25.841Z,46.08
2019-03-31T22:57:56.751Z,47.85
2019-03-31T23:00:27.896Z,46.95
2019-03-31T23:02:58.808Z,48.17
2019-03-31T23:05:29.787Z,49.42
2019-03-31T23:08:00.947Z,48.13
2019-03-31T23:10:31.920Z,55.25
2019-03-31T23:13:02.830Z,50.80
2019-03-31T23:15:33.932Z,53.00
2019-03-31T23:18:04.887Z,47.20
2019-03-31T23:20:35.900Z,50.50
2019-03-31T23:23:06.844Z,53.63
2019-03-31T23:25:37.797Z,47.48
2019-03-31T23:28:08.810Z,43.83
2019-03-31T23:30:39.756Z,49.75
2019-03-31T23:33:11.557Z,51.42
2019-03-31T23:35:42.555Z,45.88
2019-03-31T23:38:13.842Z,44.25
2019-03-31T23:40:44.819Z,45.25
2019-03-31T23:43:15.743Z,46.68
2019-03-31T23:45:46.693Z,47.35
2019-03-31T23:48:17.624Z,46.05
2019-03-31T23:50:48.663Z,47.45
2019-03-31T23:53:19.662Z,44.95
2019-03-31T23:55:50.628Z,44.85
2019-03-31T23:58:21.545Z,46.35
